sensor_id;sensor_type;location;lat;lon;timestamp;P1;durP1;ratioP1;P2;durP2;ratioP2
19505;SDS011;9894;50.852;-0.140;2023-07-09T00:01:40;0.40;;;0.40;;
19505;SDS011;9894;50.852;-0.140;2023-07-09T00:04:12;0.30;;;0.30;;
19505;SDS011;9894;50.852;-0.140;2023-07-09T00:06:39;0.30;;;0.30;;
19505;SDS011;9894;50.852;-0.140;2023-07-09T00:09:06;0.30;;;0.30;;
19505;SDS011;9894;50.852;-0.140;2023-07-09T00:11:32;0.28;;;0.28;;
19505;SDS011;9894;50.852;-0.140;2023-07-09T00:13:58;0.30;;;0.30;;
19505;SDS011;9894;50.852;-0.140;2023-07-09T00:16:25;0.22;;;0.22;;
19505;SDS011;9894;50.852;-0.140;2023-07-09T00:18:51;0.30;;;0.30;;
19505;SDS011;9894;50.852;-0.140;2023-07-09T00:21:18;0.20;;;0.20;;
19505;SDS011;9894;50.852;-0.140;2023-07-09T00:23:48;0.30;;;0.30;;
19505;SDS011;9894;50.852;-0.140;2023-07-09T00:26:15;0.30;;;0.30;;
19505;SDS011;9894;50.852;-0.140;2023-07-09T00:28:42;0.22;;;0.22;;
19505;SDS011;9894;50.852;-0.140;2023-07-09T00:31:12;0.20;;;0.20;;
19505;SDS011;9894;50.852;-0.140;2023-07-09T00:33:40;0.20;;;0.20;;
19505;SDS011;9894;50.852;-0.140;2023-07-09T00:36:18;0.22;;;0.22;;
19505;SDS011;9894;50.852;-0.140;2023-07-09T00:38:46;0.30;;;0.30;;
19505;SDS011;9894;50.852;-0.140;2023-07-09T00:41:17;0.20;;;0.20;;
19505;SDS011;9894;50.852;-0.140;2023-07-09T00:43:44;0.20;;;0.20;;
19505;SDS011;9894;50.852;-0.140;2023-07-09T00:48:40;0.20;;;0.20;;
19505;SDS011;9894;50.852;-0.140;2023-07-09T00:51:10;0.30;;;0.30;;
19505;SDS011;9894;50.852;-0.140;2023-07-09T00:53:37;0.30;;;0.30;;
19505;SDS011;9894;50.852;-0.140;2023-07-09T00:56:27;0.30;;;0.30;;
19505;SDS011;9894;50.852;-0.140;2023-07-09T00:58:54;0.30;;;0.30;;
19505;SDS011;9894;50.852;-0.140;2023-07-09T01:01:21;0.40;;;0.40;;
19505;SDS011;9894;50.852;-0.140;2023-07-09T01:03:52;0.40;;;0.40;;
19505;SDS011;9894;50.852;-0.140;2023-07-09T01:06:28;0.32;;;0.32;;
19505;SDS011;9894;50.852;-0.140;2023-07-09T01:08:57;0.30;;;0.30;;
19505;SDS011;9894;50.852;-0.140;2023-07-09T01:11:24;0.40;;;0.40;;
19505;SDS011;9894;50.852;-0.140;2023-07-09T01:13:52;0.30;;;0.30;;
19505;SDS011;9894;50.852;-0.140;2023-07-09T01:16:19;0.40;;;0.40;;
19505;SDS011;9894;50.852;-0.140;2023-07-09T01:18:49;0.40;;;0.40;;
19505;SDS011;9894;50.852;-0.140;2023-07-09T01:21:15;0.40;;;0.40;;
19505;SDS011;9894;50.852;-0.140;2023-07-09T01:23:42;0.50;;;0.50;;
19505;SDS011;9894;50.852;-0.140;2023-07-09T01:26:13;0.40;;;0.40;;
19505;SDS011;9894;50.852;-0.140;2023-07-09T01:28:40;0.40;;;0.40;;
19505;SDS011;9894;50.852;-0.140;2023-07-09T01:31:08;0.40;;;0.40;;
19505;SDS011;9894;50.852;-0.140;2023-07-09T01:33:34;0.40;;;0.40;;
19505;SDS011;9894;50.852;-0.140;2023-07-09T01:36:07;0.40;;;0.40;;
19505;SDS011;9894;50.852;-0.140;2023-07-09T01:38:34;0.40;;;0.40;;
19505;SDS011;9894;50.852;-0.140;2023-07-09T01:41:01;0.50;;;0.50;;
19505;SDS011;9894;50.852;-0.140;2023-07-09T01:43:27;0.40;;;0.40;;
19505;SDS011;9894;50.852;-0.140;2023-07-09T01:45:53;0.40;;;0.40;;
19505;SDS011;9894;50.852;-0.140;2023-07-09T01:48:23;0.50;;;0.50;;
19505;SDS011;9894;50.852;-0.140;2023-07-09T01:50:50;0.50;;;0.50;;
19505;SDS011;9894;50.852;-0.140;2023-07-09T01:53:21;0.50;;;0.50;;
19505;SDS011;9894;50.852;-0.140;2023-07-09T01:55:49;0.60;;;0.60;;
19505;SDS011;9894;50.852;-0.140;2023-07-09T01:58:15;0.50;;;0.50;;
19505;SDS011;9894;50.852;-0.140;2023-07-09T02:00:41;0.40;;;0.40;;
19505;SDS011;9894;50.852;-0.140;2023-07-09T02:03:10;0.40;;;0.40;;
19505;SDS011;9894;50.852;-0.140;2023-07-09T02:05:36;0.40;;;0.40;;
19505;SDS011;9894;50.852;-0.140;2023-07-09T02:08:03;0.40;;;0.40;;
19505;SDS011;9894;50.852;-0.140;2023-07-09T02:10:29;0.40;;;0.40;;
19505;SDS011;9894;50.852;-0.140;2023-07-09T02:12:55;0.40;;;0.40;;
19505;SDS011;9894;50.852;-0.140;2023-07-09T02:15:21;0.30;;;0.30;;
19505;SDS011;9894;50.852;-0.140;2023-07-09T02:17:47;0.30;;;0.30;;
19505;SDS011;9894;50.852;-0.140;2023-07-09T02:20:14;0.30;;;0.30;;
19505;SDS011;9894;50.852;-0.140;2023-07-09T02:22:40;0.20;;;0.20;;
19505;SDS011;9894;50.852;-0.140;2023-07-09T02:25:07;0.30;;;0.30;;
19505;SDS011;9894;50.852;-0.140;2023-07-09T02:27:34;0.30;;;0.30;;
19505;SDS011;9894;50.852;-0.140;2023-07-09T02:30:00;0.30;;;0.30;;
19505;SDS011;9894;50.852;-0.140;2023-07-09T02:32:27;0.20;;;0.20;;
19505;SDS011;9894;50.852;-0.140;2023-07-09T02:34:53;0.20;;;0.20;;
19505;SDS011;9894;50.852;-0.140;2023-07-09T02:37:21;0.20;;;0.20;;
19505;SDS011;9894;50.852;-0.140;2023-07-09T02:39:47;0.25;;;0.25;;
19505;SDS011;9894;50.852;-0.140;2023-07-09T02:42:14;0.20;;;0.20;;
19505;SDS011;9894;50.852;-0.140;2023-07-09T02:44:41;0.20;;;0.20;;
19505;SDS011;9894;50.852;-0.140;2023-07-09T02:47:08;0.20;;;0.20;;
19505;SDS011;9894;50.852;-0.140;2023-07-09T02:49:34;0.30;;;0.30;;
19505;SDS011;9894;50.852;-0.140;2023-07-09T02:52:01;0.30;;;0.30;;
19505;SDS011;9894;50.852;-0.140;2023-07-09T02:54:27;0.20;;;0.20;;
19505;SDS011;9894;50.852;-0.140;2023-07-09T02:56:53;0.20;;;0.20;;
19505;SDS011;9894;50.852;-0.140;2023-07-09T02:59:19;0.20;;;0.20;;
19505;SDS011;9894;50.852;-0.140;2023-07-09T03:01:46;0.20;;;0.20;;
19505;SDS011;9894;50.852;-0.140;2023-07-09T03:04:13;0.20;;;0.20;;
19505;SDS011;9894;50.852;-0.140;2023-07-09T03:06:39;0.20;;;0.20;;
19505;SDS011;9894;50.852;-0.140;2023-07-09T03:09:05;0.30;;;0.30;;
19505;SDS011;9894;50.852;-0.140;2023-07-09T03:11:32;0.30;;;0.30;;
19505;SDS011;9894;50.852;-0.140;2023-07-09T03:13:59;0.20;;;0.20;;
19505;SDS011;9894;50.852;-0.140;2023-07-09T03:16:26;0.20;;;0.20;;
19505;SDS011;9894;50.852;-0.140;2023-07-09T03:18:52;0.30;;;0.30;;
19505;SDS011;9894;50.852;-0.140;2023-07-09T03:21:19;0.30;;;0.30;;
19505;SDS011;9894;50.852;-0.140;2023-07-09T03:23:45;0.30;;;0.30;;
19505;SDS011;9894;50.852;-0.140;2023-07-09T03:26:12;0.30;;;0.30;;
19505;SDS011;9894;50.852;-0.140;2023-07-09T03:28:38;0.30;;;0.30;;
19505;SDS011;9894;50.852;-0.140;2023-07-09T03:31:04;0.30;;;0.30;;
19505;SDS011;9894;50.852;-0.140;2023-07-09T03:33:30;0.30;;;0.30;;
19505;SDS011;9894;50.852;-0.140;2023-07-09T03:35:56;0.20;;;0.20;;
19505;SDS011;9894;50.852;-0.140;2023-07-09T03:38:22;0.30;;;0.30;;
19505;SDS011;9894;50.852;-0.140;2023-07-09T03:40:54;0.30;;;0.30;;
19505;SDS011;9894;50.852;-0.140;2023-07-09T03:43:21;0.30;;;0.30;;
19505;SDS011;9894;50.852;-0.140;2023-07-09T03:45:47;0.30;;;0.30;;
19505;SDS011;9894;50.852;-0.140;2023-07-09T03:48:14;0.28;;;0.28;;
19505;SDS011;9894;50.852;-0.140;2023-07-09T03:50:41;0.30;;;0.30;;
19505;SDS011;9894;50.852;-0.140;2023-07-09T03:53:07;0.30;;;0.30;;
19505;SDS011;9894;50.852;-0.140;2023-07-09T03:55:33;0.30;;;0.30;;
19505;SDS011;9894;50.852;-0.140;2023-07-09T03:57:59;0.20;;;0.20;;
19505;SDS011;9894;50.852;-0.140;2023-07-09T04:00:28;0.30;;;0.30;;
19505;SDS011;9894;50.852;-0.140;2023-07-09T04:02:54;0.30;;;0.30;;
19505;SDS011;9894;50.852;-0.140;2023-07-09T04:05:22;0.30;;;0.30;;
19505;SDS011;9894;50.852;-0.140;2023-07-09T04:07:48;0.30;;;0.30;;
19505;SDS011;9894;50.852;-0.140;2023-07-09T04:10:14;0.30;;;0.30;;
19505;SDS011;9894;50.852;-0.140;2023-07-09T04:12:40;0.22;;;0.22;;
19505;SDS011;9894;50.852;-0.140;2023-07-09T04:15:07;0.40;;;0.40;;
19505;SDS011;9894;50.852;-0.140;2023-07-09T04:17:33;0.38;;;0.38;;
19505;SDS011;9894;50.852;-0.140;2023-07-09T04:20:00;0.30;;;0.30;;
19505;SDS011;9894;50.852;-0.140;2023-07-09T04:22:26;0.40;;;0.40;;
19505;SDS011;9894;50.852;-0.140;2023-07-09T04:24:52;0.40;;;0.40;;
19505;SDS011;9894;50.852;-0.140;2023-07-09T04:27:18;0.30;;;0.30;;
19505;SDS011;9894;50.852;-0.140;2023-07-09T04:29:44;0.30;;;0.30;;
19505;SDS011;9894;50.852;-0.140;2023-07-09T04:32:12;0.30;;;0.30;;
19505;SDS011;9894;50.852;-0.140;2023-07-09T04:34:38;0.40;;;0.40;;
19505;SDS011;9894;50.852;-0.140;2023-07-09T04:37:05;0.30;;;0.30;;
19505;SDS011;9894;50.852;-0.140;2023-07-09T04:39:32;0.30;;;0.30;;
19505;SDS011;9894;50.852;-0.140;2023-07-09T04:41:58;0.30;;;0.30;;
19505;SDS011;9894;50.852;-0.140;2023-07-09T04:44:24;0.30;;;0.30;;
19505;SDS011;9894;50.852;-0.140;2023-07-09T04:46:51;0.30;;;0.30;;
19505;SDS011;9894;50.852;-0.140;2023-07-09T04:49:17;0.30;;;0.30;;
19505;SDS011;9894;50.852;-0.140;2023-07-09T04:51:43;0.30;;;0.30;;
19505;SDS011;9894;50.852;-0.140;2023-07-09T04:54:09;0.30;;;0.30;;
19505;SDS011;9894;50.852;-0.140;2023-07-09T04:56:35;0.40;;;0.40;;
19505;SDS011;9894;50.852;-0.140;2023-07-09T04:59:02;0.50;;;0.50;;
19505;SDS011;9894;50.852;-0.140;2023-07-09T05:01:28;0.47;;;0.47;;
19505;SDS011;9894;50.852;-0.140;2023-07-09T05:03:55;0.50;;;0.50;;
19505;SDS011;9894;50.852;-0.140;2023-07-09T05:06:21;0.60;;;0.60;;
19505;SDS011;9894;50.852;-0.140;2023-07-09T05:08:47;0.68;;;0.68;;
19505;SDS011;9894;50.852;-0.140;2023-07-09T05:11:14;0.60;;;0.60;;
19505;SDS011;9894;50.852;-0.140;2023-07-09T05:13:40;0.60;;;0.60;;
19505;SDS011;9894;50.852;-0.140;2023-07-09T05:16:07;0.52;;;0.52;;
19505;SDS011;9894;50.852;-0.140;2023-07-09T05:18:33;0.70;;;0.70;;
19505;SDS011;9894;50.852;-0.140;2023-07-09T05:20:59;0.70;;;0.70;;
19505;SDS011;9894;50.852;-0.140;2023-07-09T05:23:25;0.80;;;0.80;;
19505;SDS011;9894;50.852;-0.140;2023-07-09T05:26:01;1.02;;;1.02;;
19505;SDS011;9894;50.852;-0.140;2023-07-09T05:28:28;0.95;;;0.95;;
19505;SDS011;9894;50.852;-0.140;2023-07-09T05:30:54;0.80;;;0.80;;
19505;SDS011;9894;50.852;-0.140;2023-07-09T05:33:21;0.70;;;0.70;;
19505;SDS011;9894;50.852;-0.140;2023-07-09T05:35:47;1.00;;;1.00;;
19505;SDS011;9894;50.852;-0.140;2023-07-09T05:38:13;1.00;;;1.00;;
19505;SDS011;9894;50.852;-0.140;2023-07-09T05:40:40;1.00;;;1.00;;
19505;SDS011;9894;50.852;-0.140;2023-07-09T05:43:06;1.20;;;1.20;;
19505;SDS011;9894;50.852;-0.140;2023-07-09T05:45:32;1.20;;;1.20;;
19505;SDS011;9894;50.852;-0.140;2023-07-09T05:47:58;1.20;;;1.20;;
19505;SDS011;9894;50.852;-0.140;2023-07-09T05:50:25;1.30;;;1.30;;
19505;SDS011;9894;50.852;-0.140;2023-07-09T05:52:51;1.13;;;1.13;;
19505;SDS011;9894;50.852;-0.140;2023-07-09T05:55:17;1.10;;;1.10;;
19505;SDS011;9894;50.852;-0.140;2023-07-09T05:57:43;1.10;;;1.10;;
19505;SDS011;9894;50.852;-0.140;2023-07-09T06:00:10;1.20;;;1.20;;
19505;SDS011;9894;50.852;-0.140;2023-07-09T06:02:37;1.10;;;1.10;;
19505;SDS011;9894;50.852;-0.140;2023-07-09T06:05:04;1.20;;;1.20;;
19505;SDS011;9894;50.852;-0.140;2023-07-09T06:07:34;1.10;;;1.10;;
19505;SDS011;9894;50.852;-0.140;2023-07-09T06:10:00;1.10;;;1.10;;
19505;SDS011;9894;50.852;-0.140;2023-07-09T06:12:26;1.05;;;1.05;;
19505;SDS011;9894;50.852;-0.140;2023-07-09T06:14:52;1.10;;;1.10;;
19505;SDS011;9894;50.852;-0.140;2023-07-09T06:17:18;1.52;;;1.52;;
19505;SDS011;9894;50.852;-0.140;2023-07-09T06:19:45;1.50;;;1.50;;
19505;SDS011;9894;50.852;-0.140;2023-07-09T06:22:11;2.25;;;2.15;;
19505;SDS011;9894;50.852;-0.140;2023-07-09T06:24:37;1.40;;;1.40;;
19505;SDS011;9894;50.852;-0.140;2023-07-09T06:27:03;1.30;;;1.30;;
19505;SDS011;9894;50.852;-0.140;2023-07-09T06:29:29;1.30;;;1.30;;
19505;SDS011;9894;50.852;-0.140;2023-07-09T06:31:55;1.40;;;1.40;;
19505;SDS011;9894;50.852;-0.140;2023-07-09T06:34:21;1.50;;;1.50;;
19505;SDS011;9894;50.852;-0.140;2023-07-09T06:36:47;1.50;;;1.50;;
19505;SDS011;9894;50.852;-0.140;2023-07-09T06:39:14;1.80;;;1.80;;
19505;SDS011;9894;50.852;-0.140;2023-07-09T06:41:40;2.00;;;1.90;;
19505;SDS011;9894;50.852;-0.140;2023-07-09T06:44:06;2.00;;;1.90;;
19505;SDS011;9894;50.852;-0.140;2023-07-09T06:46:32;1.70;;;1.70;;
19505;SDS011;9894;50.852;-0.140;2023-07-09T06:48:59;2.10;;;2.00;;
19505;SDS011;9894;50.852;-0.140;2023-07-09T06:51:25;2.30;;;2.20;;
19505;SDS011;9894;50.852;-0.140;2023-07-09T06:53:51;1.83;;;1.80;;
19505;SDS011;9894;50.852;-0.140;2023-07-09T06:56:17;2.00;;;1.90;;
19505;SDS011;9894;50.852;-0.140;2023-07-09T06:58:43;2.00;;;1.90;;
19505;SDS011;9894;50.852;-0.140;2023-07-09T07:01:12;2.40;;;2.30;;
19505;SDS011;9894;50.852;-0.140;2023-07-09T07:03:38;2.10;;;2.00;;
19505;SDS011;9894;50.852;-0.140;2023-07-09T07:06:05;2.00;;;1.90;;
19505;SDS011;9894;50.852;-0.140;2023-07-09T07:08:32;2.10;;;2.00;;
19505;SDS011;9894;50.852;-0.140;2023-07-09T07:10:59;2.13;;;2.03;;
19505;SDS011;9894;50.852;-0.140;2023-07-09T07:13:30;2.50;;;2.40;;
19505;SDS011;9894;50.852;-0.140;2023-07-09T07:15:56;2.30;;;2.20;;
19505;SDS011;9894;50.852;-0.140;2023-07-09T07:18:23;2.97;;;2.85;;
19505;SDS011;9894;50.852;-0.140;2023-07-09T07:20:49;4.10;;;3.67;;
19505;SDS011;9894;50.852;-0.140;2023-07-09T07:23:16;2.80;;;2.70;;
19505;SDS011;9894;50.852;-0.140;2023-07-09T07:25:42;2.70;;;2.60;;
19505;SDS011;9894;50.852;-0.140;2023-07-09T07:28:08;2.80;;;2.70;;
19505;SDS011;9894;50.852;-0.140;2023-07-09T07:30:34;3.30;;;3.10;;
19505;SDS011;9894;50.852;-0.140;2023-07-09T07:33:00;2.80;;;2.70;;
19505;SDS011;9894;50.852;-0.140;2023-07-09T07:35:26;3.10;;;2.95;;
19505;SDS011;9894;50.852;-0.140;2023-07-09T07:37:53;2.70;;;2.60;;
19505;SDS011;9894;50.852;-0.140;2023-07-09T07:40:19;3.50;;;3.30;;
19505;SDS011;9894;50.852;-0.140;2023-07-09T07:42:45;2.92;;;2.83;;
19505;SDS011;9894;50.852;-0.140;2023-07-09T07:45:11;2.90;;;2.80;;
19505;SDS011;9894;50.852;-0.140;2023-07-09T07:47:37;4.40;;;4.20;;
19505;SDS011;9894;50.852;-0.140;2023-07-09T07:50:05;5.20;;;4.90;;
19505;SDS011;9894;50.852;-0.140;2023-07-09T07:52:31;5.18;;;4.88;;
19505;SDS011;9894;50.852;-0.140;2023-07-09T07:54:58;5.30;;;5.00;;
19505;SDS011;9894;50.852;-0.140;2023-07-09T07:57:24;5.32;;;5.03;;
19505;SDS011;9894;50.852;-0.140;2023-07-09T07:59:51;5.28;;;4.97;;
19505;SDS011;9894;50.852;-0.140;2023-07-09T08:02:17;5.22;;;4.93;;
19505;SDS011;9894;50.852;-0.140;2023-07-09T08:04:43;5.50;;;5.20;;
19505;SDS011;9894;50.852;-0.140;2023-07-09T08:07:09;5.50;;;5.20;;
19505;SDS011;9894;50.852;-0.140;2023-07-09T08:09:36;5.90;;;5.50;;
19505;SDS011;9894;50.852;-0.140;2023-07-09T08:12:03;5.63;;;5.32;;
19505;SDS011;9894;50.852;-0.140;2023-07-09T08:14:38;6.70;;;6.30;;
19505;SDS011;9894;50.852;-0.140;2023-07-09T08:17:05;6.72;;;6.32;;
19505;SDS011;9894;50.852;-0.140;2023-07-09T08:19:32;6.10;;;5.70;;
19505;SDS011;9894;50.852;-0.140;2023-07-09T08:21:58;7.00;;;6.57;;
19505;SDS011;9894;50.852;-0.140;2023-07-09T08:24:24;7.28;;;6.78;;
19505;SDS011;9894;50.852;-0.140;2023-07-09T08:26:50;7.13;;;6.63;;
19505;SDS011;9894;50.852;-0.140;2023-07-09T08:29:16;6.90;;;6.50;;
19505;SDS011;9894;50.852;-0.140;2023-07-09T08:31:42;7.53;;;7.03;;
19505;SDS011;9894;50.852;-0.140;2023-07-09T08:34:09;7.20;;;6.70;;
19505;SDS011;9894;50.852;-0.140;2023-07-09T08:36:35;9.00;;;8.40;;
19505;SDS011;9894;50.852;-0.140;2023-07-09T08:39:02;8.65;;;8.05;;
19505;SDS011;9894;50.852;-0.140;2023-07-09T08:49:26;9.70;;;9.00;;
19505;SDS011;9894;50.852;-0.140;2023-07-09T08:51:56;10.00;;;9.30;;
19505;SDS011;9894;50.852;-0.140;2023-07-09T08:54:28;10.10;;;9.40;;
19505;SDS011;9894;50.852;-0.140;2023-07-09T08:56:55;39.45;;;11.00;;
19505;SDS011;9894;50.852;-0.140;2023-07-09T08:59:24;9.38;;;8.77;;
19505;SDS011;9894;50.852;-0.140;2023-07-09T09:01:51;10.40;;;9.70;;
19505;SDS011;9894;50.852;-0.140;2023-07-09T09:04:27;10.05;;;9.35;;
19505;SDS011;9894;50.852;-0.140;2023-07-09T09:07:16;9.25;;;8.65;;
19505;SDS011;9894;50.852;-0.140;2023-07-09T09:09:41;9.52;;;8.88;;
19505;SDS011;9894;50.852;-0.140;2023-07-09T09:14:37;8.80;;;8.20;;
19505;SDS011;9894;50.852;-0.140;2023-07-09T09:17:09;8.63;;;8.02;;
19505;SDS011;9894;50.852;-0.140;2023-07-09T09:19:45;10.00;;;9.30;;
19505;SDS011;9894;50.852;-0.140;2023-07-09T09:22:13;8.70;;;8.10;;
19505;SDS011;9894;50.852;-0.140;2023-07-09T09:27:11;10.10;;;9.40;;
19505;SDS011;9894;50.852;-0.140;2023-07-09T09:29:37;10.73;;;10.02;;
19505;SDS011;9894;50.852;-0.140;2023-07-09T09:32:12;12.30;;;11.50;;
19505;SDS011;9894;50.852;-0.140;2023-07-09T09:34:44;11.13;;;10.40;;
19505;SDS011;9894;50.852;-0.140;2023-07-09T09:37:10;12.02;;;11.23;;
19505;SDS011;9894;50.852;-0.140;2023-07-09T09:39:37;12.07;;;11.27;;
19505;SDS011;9894;50.852;-0.140;2023-07-09T09:42:07;13.00;;;12.10;;
19505;SDS011;9894;50.852;-0.140;2023-07-09T09:44:35;13.02;;;12.13;;
19505;SDS011;9894;50.852;-0.140;2023-07-09T09:47:01;13.32;;;12.32;;
19505;SDS011;9894;50.852;-0.140;2023-07-09T09:49:27;12.00;;;11.20;;
19505;SDS011;9894;50.852;-0.140;2023-07-09T09:51:54;11.10;;;10.40;;
19505;SDS011;9894;50.852;-0.140;2023-07-09T09:54:24;12.50;;;11.70;;
19505;SDS011;9894;50.852;-0.140;2023-07-09T09:56:52;11.63;;;10.82;;
19505;SDS011;9894;50.852;-0.140;2023-07-09T09:59:24;13.10;;;12.20;;
19505;SDS011;9894;50.852;-0.140;2023-07-09T10:02:00;15.30;;;14.20;;
19505;SDS011;9894;50.852;-0.140;2023-07-09T10:04:28;13.95;;;12.98;;
19505;SDS011;9894;50.852;-0.140;2023-07-09T10:06:58;12.15;;;11.35;;
19505;SDS011;9894;50.852;-0.140;2023-07-09T10:09:47;15.02;;;14.02;;
19505;SDS011;9894;50.852;-0.140;2023-07-09T10:12:24;14.38;;;13.45;;
19505;SDS011;9894;50.852;-0.140;2023-07-09T10:17:29;14.43;;;13.50;;
19505;SDS011;9894;50.852;-0.140;2023-07-09T10:22:57;14.90;;;13.90;;
19505;SDS011;9894;50.852;-0.140;2023-07-09T10:33:11;15.98;;;14.88;;
19505;SDS011;9894;50.852;-0.140;2023-07-09T10:35:55;16.30;;;15.20;;
19505;SDS011;9894;50.852;-0.140;2023-07-09T10:40:55;17.77;;;16.48;;
19505;SDS011;9894;50.852;-0.140;2023-07-09T10:45:56;16.80;;;15.70;;
19505;SDS011;9894;50.852;-0.140;2023-07-09T10:48:37;19.48;;;18.17;;
19505;SDS011;9894;50.852;-0.140;2023-07-09T10:51:04;18.50;;;17.30;;
19505;SDS011;9894;50.852;-0.140;2023-07-09T10:53:42;17.58;;;16.38;;
19505;SDS011;9894;50.852;-0.140;2023-07-09T10:56:10;19.13;;;17.58;;
19505;SDS011;9894;50.852;-0.140;2023-07-09T10:58:39;20.40;;;19.00;;
19505;SDS011;9894;50.852;-0.140;2023-07-09T11:01:06;22.20;;;20.70;;
19505;SDS011;9894;50.852;-0.140;2023-07-09T11:03:53;19.63;;;18.30;;
19505;SDS011;9894;50.852;-0.140;2023-07-09T11:06:20;21.90;;;20.40;;
19505;SDS011;9894;50.852;-0.140;2023-07-09T11:08:48;19.00;;;17.70;;
19505;SDS011;9894;50.852;-0.140;2023-07-09T11:13:51;21.85;;;20.17;;
19505;SDS011;9894;50.852;-0.140;2023-07-09T11:16:21;20.40;;;19.00;;
19505;SDS011;9894;50.852;-0.140;2023-07-09T11:18:57;19.92;;;18.63;;
19505;SDS011;9894;50.852;-0.140;2023-07-09T11:21:24;19.88;;;18.48;;
19505;SDS011;9894;50.852;-0.140;2023-07-09T11:23:52;19.20;;;18.00;;
19505;SDS011;9894;50.852;-0.140;2023-07-09T11:26:23;20.08;;;18.77;;
19505;SDS011;9894;50.852;-0.140;2023-07-09T11:28:51;18.60;;;17.40;;
19505;SDS011;9894;50.852;-0.140;2023-07-09T11:31:25;18.85;;;17.65;;
19505;SDS011;9894;50.852;-0.140;2023-07-09T11:34:02;18.80;;;17.60;;
19505;SDS011;9894;50.852;-0.140;2023-07-09T11:36:29;19.30;;;17.80;;
19505;SDS011;9894;50.852;-0.140;2023-07-09T11:38:55;17.83;;;16.67;;
19505;SDS011;9894;50.852;-0.140;2023-07-09T11:41:40;20.38;;;19.08;;
19505;SDS011;9894;50.852;-0.140;2023-07-09T11:44:17;20.48;;;19.17;;
19505;SDS011;9894;50.852;-0.140;2023-07-09T11:49:16;16.40;;;15.32;;
19505;SDS011;9894;50.852;-0.140;2023-07-09T11:51:45;16.00;;;15.00;;
19505;SDS011;9894;50.852;-0.140;2023-07-09T11:54:12;16.83;;;15.63;;
19505;SDS011;9894;50.852;-0.140;2023-07-09T11:56:39;15.85;;;14.85;;
19505;SDS011;9894;50.852;-0.140;2023-07-09T11:59:05;15.63;;;14.52;;
19505;SDS011;9894;50.852;-0.140;2023-07-09T12:01:36;20.65;;;19.35;;
19505;SDS011;9894;50.852;-0.140;2023-07-09T12:04:04;18.67;;;17.48;;
19505;SDS011;9894;50.852;-0.140;2023-07-09T12:06:31;17.08;;;15.98;;
19505;SDS011;9894;50.852;-0.140;2023-07-09T12:08:58;18.90;;;17.17;;
19505;SDS011;9894;50.852;-0.140;2023-07-09T12:11:26;19.80;;;18.50;;
19505;SDS011;9894;50.852;-0.140;2023-07-09T12:13:53;19.30;;;17.90;;
19505;SDS011;9894;50.852;-0.140;2023-07-09T12:16:20;19.20;;;18.00;;
19505;SDS011;9894;50.852;-0.140;2023-07-09T12:18:46;18.60;;;17.40;;
19505;SDS011;9894;50.852;-0.140;2023-07-09T12:21:13;19.75;;;18.45;;
19505;SDS011;9894;50.852;-0.140;2023-07-09T12:23:39;19.48;;;18.13;;
19505;SDS011;9894;50.852;-0.140;2023-07-09T12:26:06;18.20;;;16.98;;
19505;SDS011;9894;50.852;-0.140;2023-07-09T12:28:32;19.63;;;18.33;;
19505;SDS011;9894;50.852;-0.140;2023-07-09T12:30:58;17.95;;;16.75;;
19505;SDS011;9894;50.852;-0.140;2023-07-09T12:33:25;17.60;;;16.40;;
19505;SDS011;9894;50.852;-0.140;2023-07-09T12:35:54;16.20;;;15.10;;
19505;SDS011;9894;50.852;-0.140;2023-07-09T12:38:22;17.50;;;16.30;;
19505;SDS011;9894;50.852;-0.140;2023-07-09T12:40:49;17.50;;;16.20;;
19505;SDS011;9894;50.852;-0.140;2023-07-09T12:43:26;16.75;;;15.55;;
19505;SDS011;9894;50.852;-0.140;2023-07-09T12:45:52;18.08;;;16.77;;
19505;SDS011;9894;50.852;-0.140;2023-07-09T12:48:22;18.38;;;17.08;;
19505;SDS011;9894;50.852;-0.140;2023-07-09T12:50:49;17.52;;;16.33;;
19505;SDS011;9894;50.852;-0.140;2023-07-09T12:53:16;17.50;;;16.30;;
19505;SDS011;9894;50.852;-0.140;2023-07-09T12:55:44;19.20;;;17.70;;
19505;SDS011;9894;50.852;-0.140;2023-07-09T12:58:14;16.73;;;15.63;;
19505;SDS011;9894;50.852;-0.140;2023-07-09T13:00:42;17.40;;;16.05;;
19505;SDS011;9894;50.852;-0.140;2023-07-09T13:03:16;15.73;;;14.20;;
19505;SDS011;9894;50.852;-0.140;2023-07-09T13:05:57;14.27;;;13.27;;
19505;SDS011;9894;50.852;-0.140;2023-07-09T13:08:27;14.98;;;13.98;;
19505;SDS011;9894;50.852;-0.140;2023-07-09T13:10:54;17.15;;;15.95;;
19505;SDS011;9894;50.852;-0.140;2023-07-09T13:13:21;16.33;;;15.23;;
19505;SDS011;9894;50.852;-0.140;2023-07-09T13:15:49;15.52;;;14.43;;
19505;SDS011;9894;50.852;-0.140;2023-07-09T13:18:17;15.48;;;14.38;;
19505;SDS011;9894;50.852;-0.140;2023-07-09T13:20:44;15.60;;;14.50;;
19505;SDS011;9894;50.852;-0.140;2023-07-09T13:23:19;16.33;;;15.23;;
19505;SDS011;9894;50.852;-0.140;2023-07-09T13:25:45;18.02;;;16.83;;
19505;SDS011;9894;50.852;-0.140;2023-07-09T13:30:40;17.73;;;16.52;;
19505;SDS011;9894;50.852;-0.140;2023-07-09T13:33:10;19.45;;;18.15;;
19505;SDS011;9894;50.852;-0.140;2023-07-09T13:35:36;18.15;;;16.95;;
19505;SDS011;9894;50.852;-0.140;2023-07-09T13:38:05;21.60;;;20.20;;
19505;SDS011;9894;50.852;-0.140;2023-07-09T13:40:35;19.48;;;18.17;;
19505;SDS011;9894;50.852;-0.140;2023-07-09T13:43:01;19.60;;;18.30;;
19505;SDS011;9894;50.852;-0.140;2023-07-09T13:45:28;17.98;;;16.77;;
19505;SDS011;9894;50.852;-0.140;2023-07-09T13:47:55;20.77;;;19.48;;
19505;SDS011;9894;50.852;-0.140;2023-07-09T13:50:21;19.08;;;17.88;;
19505;SDS011;9894;50.852;-0.140;2023-07-09T13:52:48;19.33;;;18.10;;
19505;SDS011;9894;50.852;-0.140;2023-07-09T13:55:19;16.60;;;15.50;;
19505;SDS011;9894;50.852;-0.140;2023-07-09T13:57:46;15.95;;;14.95;;
19505;SDS011;9894;50.852;-0.140;2023-07-09T14:00:12;16.42;;;14.98;;
19505;SDS011;9894;50.852;-0.140;2023-07-09T14:02:39;16.10;;;15.10;;
19505;SDS011;9894;50.852;-0.140;2023-07-09T14:05:06;14.30;;;13.40;;
19505;SDS011;9894;50.852;-0.140;2023-07-09T14:07:34;14.95;;;13.75;;
19505;SDS011;9894;50.852;-0.140;2023-07-09T14:10:01;12.80;;;12.00;;
19505;SDS011;9894;50.852;-0.140;2023-07-09T14:12:30;10.13;;;9.43;;
19505;SDS011;9894;50.852;-0.140;2023-07-09T14:14:57;8.95;;;8.35;;
19505;SDS011;9894;50.852;-0.140;2023-07-09T14:17:24;8.27;;;7.78;;
19505;SDS011;9894;50.852;-0.140;2023-07-09T14:19:51;8.00;;;7.50;;
19505;SDS011;9894;50.852;-0.140;2023-07-09T14:24:43;7.35;;;6.85;;
19505;SDS011;9894;50.852;-0.140;2023-07-09T14:27:10;6.10;;;5.70;;
19505;SDS011;9894;50.852;-0.140;2023-07-09T14:29:36;6.50;;;6.10;;
19505;SDS011;9894;50.852;-0.140;2023-07-09T14:32:02;6.32;;;5.93;;
19505;SDS011;9894;50.852;-0.140;2023-07-09T14:34:29;5.55;;;5.20;;
19505;SDS011;9894;50.852;-0.140;2023-07-09T14:36:57;6.70;;;6.20;;
19505;SDS011;9894;50.852;-0.140;2023-07-09T14:39:23;5.38;;;5.07;;
19505;SDS011;9894;50.852;-0.140;2023-07-09T14:41:49;5.75;;;5.45;;
19505;SDS011;9894;50.852;-0.140;2023-07-09T14:44:20;8.55;;;7.95;;
19505;SDS011;9894;50.852;-0.140;2023-07-09T14:46:47;9.38;;;7.00;;
19505;SDS011;9894;50.852;-0.140;2023-07-09T14:49:15;7.40;;;6.90;;
19505;SDS011;9894;50.852;-0.140;2023-07-09T14:51:41;6.30;;;5.90;;
19505;SDS011;9894;50.852;-0.140;2023-07-09T14:54:17;6.88;;;6.47;;
19505;SDS011;9894;50.852;-0.140;2023-07-09T14:56:44;7.30;;;6.80;;
19505;SDS011;9894;50.852;-0.140;2023-07-09T14:59:10;6.00;;;5.60;;
19505;SDS011;9894;50.852;-0.140;2023-07-09T15:01:36;36.65;;;7.25;;
19505;SDS011;9894;50.852;-0.140;2023-07-09T15:04:45;7.10;;;6.60;;
19505;SDS011;9894;50.852;-0.140;2023-07-09T15:06:53;7.60;;;7.10;;
19505;SDS011;9894;50.852;-0.140;2023-07-09T15:09:19;7.85;;;7.35;;
19505;SDS011;9894;50.852;-0.140;2023-07-09T15:11:47;9.23;;;8.63;;
19505;SDS011;9894;50.852;-0.140;2023-07-09T15:14:14;7.72;;;7.22;;
19505;SDS011;9894;50.852;-0.140;2023-07-09T15:16:41;8.57;;;7.97;;
19505;SDS011;9894;50.852;-0.140;2023-07-09T15:19:16;8.50;;;7.90;;
19505;SDS011;9894;50.852;-0.140;2023-07-09T15:21:43;8.05;;;7.55;;
19505;SDS011;9894;50.852;-0.140;2023-07-09T15:24:20;9.77;;;9.07;;
19505;SDS011;9894;50.852;-0.140;2023-07-09T15:26:48;7.80;;;7.30;;
19505;SDS011;9894;50.852;-0.140;2023-07-09T15:29:16;7.80;;;7.30;;